createdAt,value
2018-11-28T08:13:39.724Z,25
2018-11-28T08:14:11.693Z,25
2018-11-28T08:14:43.684Z,25
2018-11-28T08:15:15.671Z,25
2018-11-28T08:15:47.740Z,25
2018-11-28T08:16:19.700Z,30
2018-11-28T08:16:51.676Z,30
2018-11-28T08:17:23.657Z,30
2018-11-28T08:17:55.641Z,30
2018-11-28T08:18:27.658Z,30
2018-11-28T08:18:59.644Z,30
2018-11-28T08:19:31.627Z,30
2018-11-28T08:20:03.591Z,35
2018-11-28T08:20:35.570Z,35
2018-11-28T08:21:07.543Z,35
2018-11-28T08:21:39.516Z,35
2018-11-28T08:22:11.529Z,40
2018-11-28T08:22:43.484Z,45
2018-11-28T08:23:15.487Z,40
2018-11-28T08:23:47.467Z,35
2018-11-28T08:24:19.442Z,35
2018-11-28T08:24:51.413Z,40
2018-11-28T08:25:29.414Z,40
2018-11-28T08:26:01.413Z,40
2018-11-28T08:26:33.382Z,35
2018-11-28T08:27:05.359Z,35
2018-11-28T08:27:37.337Z,35
2018-11-28T08:28:09.315Z,40
2018-11-28T08:28:41.306Z,35
2018-11-28T08:29:13.282Z,35
2018-11-28T08:29:45.261Z,30
2018-11-28T08:30:17.253Z,35
2018-11-28T08:30:49.221Z,35
2018-11-28T08:31:21.201Z,40
2018-11-28T08:31:53.178Z,35
2018-11-28T08:32:25.246Z,35
2018-11-28T08:32:57.230Z,30
2018-11-28T08:33:29.232Z,30
2018-11-28T08:34:01.223Z,35
2018-11-28T08:34:33.207Z,35
2018-11-28T08:35:05.196Z,30
2018-11-28T08:35:37.190Z,30
2018-11-28T08:36:09.995Z,30
2018-11-28T08:36:42.002Z,30
2018-11-28T08:37:14.033Z,30
2018-11-28T08:37:46.023Z,30
2018-11-28T08:38:17.993Z,30
2018-11-28T08:38:49.953Z,30
2018-11-28T08:39:21.938Z,30
2018-11-28T08:39:53.918Z,30
2018-11-28T08:40:25.903Z,30
2018-11-28T08:40:57.872Z,30
2018-11-28T08:41:29.896Z,30
2018-11-28T08:42:01.873Z,30
2018-11-28T08:42:33.864Z,30
2018-11-28T08:43:05.848Z,30
2018-11-28T08:43:37.811Z,30
2018-11-28T08:44:09.778Z,30
2018-11-28T08:44:41.741Z,30
2018-11-28T08:45:13.735Z,30
2018-11-28T08:45:46.162Z,30
2018-11-28T08:46:18.167Z,30
2018-11-28T08:46:50.140Z,30
2018-11-28T08:47:22.137Z,30
2018-11-28T08:47:54.117Z,35
2018-11-28T08:48:26.330Z,35
2018-11-28T08:48:58.310Z,35
2018-11-28T08:49:30.300Z,35
2018-11-28T08:50:02.418Z,35
2018-11-28T08:50:34.491Z,35
2018-11-28T08:51:06.456Z,35
2018-11-28T08:51:39.066Z,35
2018-11-28T08:52:11.047Z,35
2018-11-28T08:52:43.074Z,35
2018-11-28T08:53:15.050Z,40
2018-11-28T08:53:47.033Z,40
2018-11-28T08:54:19.005Z,40
2018-11-28T08:54:50.992Z,40
2018-11-28T08:55:22.966Z,40
2018-11-28T08:55:55.034Z,40
2018-11-28T08:56:27.066Z,40
2018-11-28T08:57:00.269Z,40
2018-11-28T08:57:32.271Z,40
2018-11-28T08:58:04.252Z,45
2018-11-28T08:58:36.541Z,45
2018-11-28T08:59:08.534Z,45
2018-11-28T08:59:40.536Z,45
2018-11-28T09:00:12.517Z,45
2018-11-28T09:00:44.499Z,45
2018-11-28T09:01:16.467Z,45
2018-11-28T09:01:48.446Z,45
2018-11-28T09:02:20.437Z,45
2018-11-28T09:02:52.407Z,45
2018-11-28T09:03:24.372Z,45
2018-11-28T09:03:56.355Z,45
2018-11-28T09:04:28.318Z,45
2018-11-28T09:05:00.290Z,45
2018-11-28T09:05:32.275Z,45
2018-11-28T09:06:04.337Z,45
2018-11-28T09:06:36.292Z,45
2018-11-28T09:07:08.259Z,45
2018-11-28T09:07:40.267Z,45
2018-11-28T09:08:12.268Z,45
2018-11-28T09:08:44.252Z,50
2018-11-28T09:09:16.421Z,50
2018-11-28T09:09:49.755Z,50
2018-11-28T09:10:21.851Z,50
2018-11-28T09:10:53.841Z,50
2018-11-28T09:11:25.819Z,50
2018-11-28T09:11:57.819Z,50
2018-11-28T09:12:29.800Z,50
2018-11-28T09:13:05.889Z,50
2018-11-28T09:13:37.881Z,50
2018-11-28T09:14:09.865Z,50
2018-11-28T09:14:41.857Z,50
2018-11-28T09:15:13.830Z,50
2018-11-28T09:15:45.811Z,50
2018-11-28T09:16:18.066Z,50
2018-11-28T09:16:50.043Z,55
2018-11-28T09:17:22.019Z,55
2018-11-28T09:17:54.014Z,55
2018-11-28T09:18:26.005Z,55
2018-11-28T09:18:58.065Z,55
2018-11-28T09:19:30.037Z,55
2018-11-28T09:20:02.045Z,50
2018-11-28T09:20:35.527Z,50
2018-11-28T09:21:07.467Z,50
2018-11-28T09:21:39.461Z,50
2018-11-28T09:22:11.451Z,50
2018-11-28T09:22:43.449Z,50
2018-11-28T09:23:15.422Z,50
2018-11-28T09:23:47.419Z,50
2018-11-28T09:24:19.397Z,50
2018-11-28T09:24:51.408Z,50
2018-11-28T09:25:23.402Z,50
2018-11-28T09:25:55.398Z,50
2018-11-28T09:26:27.382Z,50
2018-11-28T09:26:59.359Z,50
2018-11-28T09:27:31.340Z,50
2018-11-28T09:28:03.541Z,50
2018-11-28T09:28:35.541Z,55
2018-11-28T09:29:07.536Z,55
2018-11-28T09:29:39.514Z,55
2018-11-28T09:30:11.490Z,55
2018-11-28T09:30:43.467Z,55
2018-11-28T09:31:15.444Z,55
2018-11-28T09:31:47.431Z,55
2018-11-28T09:32:19.412Z,55
2018-11-28T09:32:51.464Z,55
2018-11-28T09:33:23.447Z,55
2018-11-28T09:33:55.424Z,55
2018-11-28T09:34:27.416Z,55
2018-11-28T09:34:59.400Z,55
2018-11-28T09:35:31.378Z,55
2018-11-28T09:36:03.380Z,60
2018-11-28T09:36:35.321Z,60
2018-11-28T09:37:07.318Z,60
2018-11-28T09:37:45.260Z,60
2018-11-28T09:38:17.948Z,60
2018-11-28T09:38:49.957Z,60
2018-11-28T09:39:21.965Z,60
2018-11-28T09:39:53.930Z,60
2018-11-28T09:40:25.919Z,60
2018-11-28T09:40:57.906Z,60
2018-11-28T09:41:29.890Z,65
2018-11-28T09:42:01.840Z,65
2018-11-28T09:42:33.817Z,65
2018-11-28T09:43:05.807Z,65
2018-11-28T09:43:37.791Z,65
2018-11-28T09:44:09.783Z,70
2018-11-28T09:44:41.771Z,70
2018-11-28T09:45:13.748Z,70
2018-11-28T09:45:45.742Z,70
2018-11-28T09:46:17.734Z,70
2018-11-28T09:46:49.720Z,70
2018-11-28T09:47:21.703Z,70
2018-11-28T09:47:53.711Z,70
2018-11-28T09:48:25.690Z,70
2018-11-28T09:48:57.678Z,70
2018-11-28T09:49:29.652Z,70
2018-11-28T09:50:01.621Z,70
2018-11-28T09:50:33.601Z,70
2018-11-28T09:51:05.586Z,70
2018-11-28T09:51:37.633Z,70
2018-11-28T09:52:09.623Z,70
2018-11-28T09:52:41.670Z,70
2018-11-28T09:53:13.647Z,70
2018-11-28T09:53:45.632Z,70
2018-11-28T09:54:17.609Z,70
2018-11-28T09:54:49.594Z,75
2018-11-28T09:55:21.582Z,75
2018-11-28T09:55:53.597Z,75
2018-11-28T09:56:25.589Z,75
2018-11-28T09:56:57.570Z,75
2018-11-28T09:57:29.547Z,80
2018-11-28T09:58:01.547Z,80
2018-11-28T09:58:33.537Z,80
2018-11-28T09:59:05.518Z,80
2018-11-28T09:59:37.486Z,85
2018-11-28T10:00:09.446Z,85
2018-11-28T10:00:41.415Z,80
2018-11-28T10:01:13.375Z,85
2018-11-28T10:01:45.354Z,90
2018-11-28T10:02:17.337Z,90
2018-11-28T10:02:49.349Z,95
2018-11-28T10:03:21.325Z,95
2018-11-28T10:03:53.305Z,100
2018-11-28T10:04:25.289Z,100
2018-11-28T10:05:03.406Z,105
2018-11-28T10:05:35.780Z,105
2018-11-28T10:06:07.795Z,110
2018-11-28T10:06:39.751Z,110
2018-11-28T10:07:11.764Z,115
2018-11-28T10:07:43.748Z,115
2018-11-28T10:08:15.736Z,110
2018-11-28T10:08:47.706Z,115
2018-11-28T10:09:19.719Z,110
2018-11-28T10:09:51.697Z,100
2018-11-28T10:10:23.675Z,100
2018-11-28T10:10:55.642Z,100
2018-11-28T10:11:27.636Z,105
2018-11-28T10:11:59.654Z,110
2018-11-28T10:12:31.635Z,110
2018-11-28T10:13:03.606Z,110
2018-11-28T10:13:35.578Z,115
2018-11-28T10:14:07.530Z,120
2018-11-28T10:14:39.522Z,115
2018-11-28T10:15:11.494Z,120
2018-11-28T10:15:43.459Z,125
2018-11-28T10:16:15.450Z,120
2018-11-28T10:16:51.623Z,120
2018-11-28T10:17:23.955Z,115
2018-11-28T10:17:55.946Z,115
2018-11-28T10:18:27.914Z,125
2018-11-28T10:18:59.879Z,125
2018-11-28T10:19:31.882Z,120
2018-11-28T10:20:03.855Z,125
2018-11-28T10:20:35.826Z,125
2018-11-28T10:21:07.794Z,120
2018-11-28T10:21:39.773Z,110
2018-11-28T10:22:11.766Z,100
2018-11-28T10:22:43.736Z,105
2018-11-28T10:23:15.714Z,110
2018-11-28T10:23:47.693Z,110
2018-11-28T10:24:19.735Z,105
2018-11-28T10:24:51.704Z,105
2018-11-28T10:25:23.773Z,110
2018-11-28T10:25:55.747Z,110
2018-11-28T10:26:27.712Z,110
2018-11-28T10:26:59.699Z,115
2018-11-28T10:27:31.668Z,110
2018-11-28T10:28:03.659Z,110
2018-11-28T10:28:35.639Z,115
2018-11-28T10:29:07.607Z,120
2018-11-28T10:29:39.586Z,125
2018-11-28T10:30:11.562Z,130
2018-11-28T10:30:43.528Z,135
2018-11-28T10:31:15.525Z,120
2018-11-28T10:31:47.490Z,105
2018-11-28T10:32:19.556Z,105
2018-11-28T10:32:51.544Z,105
2018-11-28T10:33:23.505Z,110
2018-11-28T10:33:55.468Z,120
2018-11-28T10:34:31.159Z,120
2018-11-28T10:35:03.146Z,120
2018-11-28T10:35:35.110Z,120
2018-11-28T10:36:07.083Z,125
2018-11-28T10:36:39.070Z,125
2018-11-28T10:37:11.040Z,130
2018-11-28T10:37:43.023Z,130
2018-11-28T10:38:14.985Z,130
2018-11-28T10:38:47.042Z,130
2018-11-28T10:39:19.033Z,135
2018-11-28T10:39:51.020Z,135
2018-11-28T10:40:22.976Z,135
2018-11-28T10:40:54.946Z,135
2018-11-28T10:41:26.946Z,140
2018-11-28T10:41:58.903Z,145
2018-11-28T10:42:30.881Z,150
2018-11-28T10:43:02.868Z,155
2018-11-28T10:43:34.866Z,155
2018-11-28T10:44:06.861Z,155
2018-11-28T10:44:38.844Z,155
2018-11-28T10:45:10.821Z,160
2018-11-28T10:45:42.854Z,160
2018-11-28T10:46:14.836Z,155
2018-11-28T10:46:46.827Z,155
2018-11-28T10:47:18.810Z,155
2018-11-28T10:47:50.839Z,155
2018-11-28T10:48:22.834Z,150
2018-11-28T10:48:54.817Z,145
2018-11-28T10:49:26.819Z,150
2018-11-28T10:49:58.809Z,150
2018-11-28T10:50:30.790Z,160
2018-11-28T10:51:02.757Z,150
2018-11-28T10:51:34.743Z,145
2018-11-28T10:52:06.711Z,145
2018-11-28T10:52:38.692Z,140
2018-11-28T10:53:10.685Z,145
2018-11-28T10:53:42.642Z,150
2018-11-28T10:54:14.635Z,150
2018-11-28T10:54:46.606Z,150
2018-11-28T10:55:18.570Z,145
2018-11-28T10:55:50.544Z,140
2018-11-28T10:56:22.504Z,135
2018-11-28T10:56:54.507Z,120
2018-11-28T10:57:26.470Z,105
2018-11-28T10:57:58.435Z,105
2018-11-28T10:58:30.471Z,100
2018-11-28T10:59:02.626Z,95
2018-11-28T10:59:34.595Z,90
2018-11-28T11:00:06.889Z,90
2018-11-28T11:00:38.857Z,90
2018-11-28T11:01:10.948Z,90
2018-11-28T11:01:42.928Z,85
2018-11-28T11:02:14.895Z,85
2018-11-28T11:02:47.023Z,85
2018-11-28T11:03:19.028Z,80
2018-11-28T11:03:51.018Z,80
2018-11-28T11:04:23.548Z,80
2018-11-28T11:04:55.699Z,80
2018-11-28T11:05:27.737Z,80
2018-11-28T11:05:59.765Z,80
2018-11-28T11:06:31.758Z,80
2018-11-28T11:07:03.751Z,80
2018-11-28T11:07:35.735Z,75
2018-11-28T11:08:07.727Z,75
2018-11-28T11:08:39.710Z,75
2018-11-28T11:09:11.715Z,75
2018-11-28T11:09:44.709Z,75
2018-11-28T11:10:16.692Z,75
2018-11-28T11:10:48.686Z,75
2018-11-28T11:11:20.655Z,75
2018-11-28T11:11:52.644Z,75
2018-11-28T11:12:24.642Z,75
2018-11-28T11:12:56.607Z,75
2018-11-28T11:13:28.613Z,75
2018-11-28T11:14:00.604Z,75
2018-11-28T11:14:32.586Z,75
2018-11-28T11:15:04.569Z,75
2018-11-28T11:15:36.555Z,75
2018-11-28T11:16:08.542Z,75
2018-11-28T11:16:40.526Z,70
2018-11-28T11:17:12.534Z,70
2018-11-28T11:17:44.516Z,70
2018-11-28T11:18:16.484Z,70
2018-11-28T11:18:48.432Z,70
2018-11-28T11:19:20.420Z,70
2018-11-28T11:19:52.421Z,70
2018-11-28T11:20:24.393Z,70
2018-11-28T11:20:56.436Z,70
2018-11-28T11:21:28.437Z,70
2018-11-28T11:22:00.414Z,70
2018-11-28T11:22:32.426Z,70
2018-11-28T11:23:04.405Z,70
2018-11-28T11:23:36.377Z,70
2018-11-28T11:24:08.349Z,75
2018-11-28T11:24:40.372Z,75
2018-11-28T11:25:12.351Z,75
2018-11-28T11:25:44.337Z,75
2018-11-28T11:26:16.329Z,75
2018-11-28T11:26:48.325Z,75
2018-11-28T11:27:20.317Z,75
2018-11-28T11:27:52.296Z,75
2018-11-28T11:28:24.283Z,75
2018-11-28T11:28:56.285Z,75
2018-11-28T11:29:28.260Z,75
2018-11-28T11:30:00.387Z,75
2018-11-28T11:30:32.377Z,75
2018-11-28T11:31:04.368Z,75
2018-11-28T11:31:36.343Z,80
2018-11-28T11:32:08.325Z,80
2018-11-28T11:32:40.401Z,80
2018-11-28T11:33:12.353Z,80
2018-11-28T11:33:44.334Z,80
2018-11-28T11:34:17.745Z,80
2018-11-28T11:34:50.058Z,80
2018-11-28T11:35:22.098Z,80
2018-11-28T11:35:54.079Z,80
2018-11-28T11:36:26.064Z,80
2018-11-28T11:36:58.056Z,80
2018-11-28T11:37:30.036Z,85
2018-11-28T11:38:02.032Z,85
2018-11-28T11:38:34.023Z,85
2018-11-28T11:39:06.004Z,85
2018-11-28T11:39:37.979Z,85
2018-11-28T11:40:09.951Z,85
2018-11-28T11:40:41.919Z,85
2018-11-28T11:41:13.908Z,85
2018-11-28T11:41:45.882Z,85
2018-11-28T11:42:17.861Z,85
2018-11-28T11:42:49.852Z,85
2018-11-28T11:43:21.839Z,85
2018-11-28T11:43:53.810Z,85
2018-11-28T11:44:25.805Z,85
2018-11-28T11:44:57.795Z,85
2018-11-28T11:45:29.758Z,85
2018-11-28T11:46:01.779Z,85
2018-11-28T11:46:33.744Z,85
2018-11-28T11:47:05.705Z,85
2018-11-28T11:47:37.696Z,85
2018-11-28T11:48:09.698Z,85
2018-11-28T11:48:41.689Z,85
2018-11-28T11:49:13.681Z,85
2018-11-28T11:49:45.675Z,85
2018-11-28T11:50:17.724Z,85
2018-11-28T11:50:49.733Z,85
2018-11-28T11:51:21.714Z,85
2018-11-28T11:51:53.687Z,85
2018-11-28T11:52:25.759Z,85
2018-11-28T11:53:06.023Z,85
2018-11-28T11:53:38.019Z,85
2018-11-28T11:54:10.003Z,85
2018-11-28T11:54:42.002Z,85
2018-11-28T11:55:14.127Z,85
2018-11-28T11:55:46.117Z,85
2018-11-28T11:56:18.250Z,85
2018-11-28T11:56:50.428Z,90
2018-11-28T11:57:22.465Z,90
2018-11-28T11:57:55.179Z,90
2018-11-28T11:58:27.183Z,95
2018-11-28T11:58:59.200Z,95
2018-11-28T11:59:31.200Z,100
2018-11-28T12:00:03.720Z,100
2018-11-28T12:00:35.711Z,100
2018-11-28T12:01:07.772Z,105
2018-11-28T12:01:39.766Z,110
2018-11-28T12:02:11.959Z,110
2018-11-28T12:02:43.993Z,115
2018-11-28T12:03:15.992Z,115
2018-11-28T12:03:47.993Z,120
2018-11-28T12:04:19.974Z,120
2018-11-28T12:04:51.962Z,120
2018-11-28T12:05:23.956Z,120
2018-11-28T12:05:56.008Z,120
2018-11-28T12:06:28.008Z,120
2018-11-28T12:06:59.980Z,125
2018-11-28T12:07:31.961Z,125
2018-11-28T12:08:03.989Z,125
2018-11-28T12:08:35.980Z,130
2018-11-28T12:09:07.998Z,130
2018-11-28T12:09:39.983Z,135
2018-11-28T12:10:11.985Z,140
2018-11-28T12:10:44.042Z,145
2018-11-28T12:11:30.555Z,150
2018-11-28T12:12:06.239Z,155
2018-11-28T12:12:38.248Z,170
2018-11-28T12:13:10.239Z,165
2018-11-28T12:13:42.237Z,160
2018-11-28T12:14:14.243Z,155
2018-11-28T12:14:46.228Z,150
2018-11-28T12:15:18.201Z,150
2018-11-28T12:15:50.218Z,150
2018-11-28T12:16:23.365Z,150
2018-11-28T12:16:55.367Z,155
2018-11-28T12:17:27.344Z,160
2018-11-28T12:17:59.340Z,160
2018-11-28T12:18:31.339Z,185
2018-11-28T12:19:03.328Z,180
2018-11-28T12:19:35.369Z,195
2018-11-28T12:20:07.382Z,220
2018-11-28T12:20:39.450Z,230
2018-11-28T12:21:11.472Z,245
2018-11-28T12:21:44.785Z,260
2018-11-28T12:22:16.780Z,260
2018-11-28T12:22:48.761Z,255
2018-11-28T12:23:20.752Z,255
2018-11-28T12:23:52.740Z,250
2018-11-28T12:24:24.712Z,245
2018-11-28T12:24:56.697Z,230
2018-11-28T12:25:28.672Z,235
2018-11-28T12:26:00.666Z,230
2018-11-28T12:26:32.647Z,205
2018-11-28T12:27:04.651Z,200
2018-11-28T12:27:36.626Z,190
2018-11-28T12:28:08.615Z,185
2018-11-28T12:28:40.603Z,165
2018-11-28T12:29:12.591Z,150
2018-11-28T12:29:45.061Z,160
2018-11-28T12:30:17.047Z,155
2018-11-28T12:30:49.018Z,150
2018-11-28T12:31:20.991Z,150
2018-11-28T12:31:52.979Z,145
2018-11-28T12:32:24.982Z,140
2018-11-28T12:32:56.968Z,140
2018-11-28T12:33:28.942Z,135
2018-11-28T12:34:00.926Z,135
2018-11-28T12:34:32.908Z,135
2018-11-28T12:35:04.895Z,130
2018-11-28T12:35:36.909Z,130
2018-11-28T12:36:08.884Z,130
2018-11-28T12:36:40.879Z,130
2018-11-28T12:37:12.850Z,125
2018-11-28T12:37:44.829Z,125
2018-11-28T12:38:16.836Z,125
2018-11-28T12:38:48.828Z,120
2018-11-28T12:39:53.876Z,120
2018-11-28T12:40:25.904Z,125
2018-11-28T12:40:57.888Z,130
2018-11-28T12:41:29.900Z,135
2018-11-28T12:42:01.897Z,140
2018-11-28T12:42:33.880Z,145
2018-11-28T12:43:05.857Z,150
2018-11-28T12:43:37.848Z,160
2018-11-28T12:44:09.836Z,160
2018-11-28T12:44:41.905Z,165
2018-11-28T12:45:13.892Z,160
2018-11-28T12:45:45.879Z,155
2018-11-28T12:46:17.848Z,155
2018-11-28T12:46:49.837Z,150
2018-11-28T12:47:21.882Z,150
2018-11-28T12:47:53.836Z,145
2018-11-28T12:48:25.813Z,140
2018-11-28T12:48:57.796Z,130
2018-11-28T12:49:29.771Z,125
2018-11-28T12:50:01.740Z,120
2018-11-28T12:50:33.751Z,120
2018-11-28T12:51:05.737Z,115
2018-11-28T12:51:37.722Z,110
2018-11-28T12:52:09.692Z,110
2018-11-28T12:52:41.673Z,110
2018-11-28T12:53:13.645Z,105
2018-11-28T12:53:45.645Z,105
2018-11-28T12:54:17.598Z,105
2018-11-28T12:54:49.573Z,105
2018-11-28T12:55:21.557Z,105
2018-11-28T12:55:53.558Z,105
2018-11-28T12:56:25.516Z,105
2018-11-28T12:56:57.484Z,105
2018-11-28T12:57:29.447Z,100
2018-11-28T12:58:01.431Z,100
2018-11-28T12:58:33.413Z,100
2018-11-28T12:59:05.372Z,100
2018-11-28T12:59:37.335Z,100
2018-11-28T13:00:09.291Z,100
2018-11-28T13:00:41.276Z,95
2018-11-28T13:01:13.250Z,95
2018-11-28T13:01:45.212Z,95
2018-11-28T13:02:17.194Z,90
2018-11-28T13:02:49.156Z,90
2018-11-28T13:03:21.148Z,85
2018-11-28T13:03:53.128Z,80
2018-11-28T13:04:25.100Z,80
2018-11-28T13:05:01.549Z,80
2018-11-28T13:05:33.513Z,75
2018-11-28T13:06:05.472Z,75
2018-11-28T13:06:37.443Z,75
2018-11-28T13:07:09.413Z,70
2018-11-28T13:07:41.385Z,70
2018-11-28T13:08:13.357Z,70
2018-11-28T13:08:45.328Z,70
2018-11-28T13:09:17.319Z,70
2018-11-28T13:09:49.297Z,65
2018-11-28T13:10:21.281Z,65
2018-11-28T13:10:53.244Z,65
2018-11-28T13:11:25.211Z,65
2018-11-28T13:12:01.733Z,65
2018-11-28T13:12:33.696Z,60
2018-11-28T13:13:05.691Z,60
2018-11-28T13:13:37.663Z,60
2018-11-28T13:14:09.641Z,60
2018-11-28T13:14:41.638Z,60
2018-11-28T13:15:13.617Z,60
2018-11-28T13:15:45.590Z,55
2018-11-28T13:16:17.556Z,55
2018-11-28T13:16:49.532Z,55
2018-11-28T13:17:21.500Z,55
2018-11-28T13:17:53.481Z,55
2018-11-28T13:18:25.444Z,50
2018-11-28T13:18:57.423Z,50
2018-11-28T13:19:29.390Z,50
2018-11-28T13:20:01.386Z,50
2018-11-28T13:20:33.379Z,50
2018-11-28T13:21:05.361Z,50
2018-11-28T13:21:37.419Z,50
2018-11-28T13:22:09.395Z,45
2018-11-28T13:22:41.383Z,45
2018-11-28T13:23:13.375Z,45
2018-11-28T13:23:45.368Z,45
2018-11-28T13:24:17.341Z,45
2018-11-28T13:24:49.332Z,45
2018-11-28T13:25:21.309Z,45
2018-11-28T13:25:53.285Z,45
2018-11-28T13:26:25.267Z,40
2018-11-28T13:26:57.239Z,40
2018-11-28T13:27:29.207Z,40
2018-11-28T13:28:01.193Z,40
2018-11-28T13:28:33.156Z,40
2018-11-28T13:29:05.126Z,40
2018-11-28T13:29:37.127Z,40
2018-11-28T13:30:09.181Z,40
2018-11-28T13:30:41.192Z,40
2018-11-28T13:31:13.178Z,40
2018-11-28T13:31:45.153Z,35
2018-11-28T13:32:17.124Z,35
2018-11-28T13:32:49.111Z,35
2018-11-28T13:33:21.116Z,35
2018-11-28T13:33:53.112Z,35
2018-11-28T13:34:25.238Z,35
2018-11-28T13:34:57.219Z,35
2018-11-28T13:35:29.194Z,35
2018-11-28T13:36:01.175Z,35
2018-11-28T13:36:33.148Z,35
2018-11-28T13:37:05.134Z,35
2018-11-28T13:37:37.129Z,35
2018-11-28T13:38:09.140Z,30
2018-11-28T13:38:41.117Z,30
2018-11-28T13:39:13.098Z,30
2018-11-28T13:39:45.079Z,30
2018-11-28T13:40:17.042Z,30
2018-11-28T13:40:49.022Z,30
2018-11-28T13:41:21.002Z,30
2018-11-28T13:41:52.980Z,30
2018-11-28T13:42:24.942Z,30
2018-11-28T13:42:56.898Z,30
2018-11-28T13:43:28.869Z,30
2018-11-28T13:44:00.871Z,30
2018-11-28T13:44:32.833Z,30
2018-11-28T13:45:04.809Z,30
2018-11-28T13:45:36.776Z,30
2018-11-28T13:46:09.199Z,30
2018-11-28T13:46:41.157Z,30
2018-11-28T13:47:13.136Z,30
2018-11-28T13:47:45.106Z,30
2018-11-28T13:48:17.109Z,30
2018-11-28T13:48:49.080Z,30
2018-11-28T13:49:21.111Z,25
2018-11-28T13:49:53.091Z,25
2018-11-28T13:50:25.165Z,25
2018-11-28T13:50:57.158Z,25
2018-11-28T13:51:29.125Z,25
2018-11-28T13:52:01.090Z,25
2018-11-28T13:52:33.039Z,25
2018-11-28T13:53:04.998Z,25
2018-11-28T13:53:37.016Z,25
2018-11-28T13:54:23.310Z,25
2018-11-28T13:55:43.252Z,25
2018-11-28T13:57:10.394Z,25
